sensor_id;sensor_type;location;lat;lon;timestamp;temperature;humidity
21762;DHT22;11203;50.870;20.682;2023-04-01T00:01:01;9.10;99.90
21762;DHT22;11203;50.870;20.682;2023-04-01T00:03:28;9.00;99.90
21762;DHT22;11203;50.870;20.682;2023-04-01T00:05:56;9.00;99.90
21762;DHT22;11203;50.870;20.682;2023-04-01T00:08:24;9.00;99.90
21762;DHT22;11203;50.870;20.682;2023-04-01T00:10:51;9.00;99.90
21762;DHT22;11203;50.870;20.682;2023-04-01T00:13:18;9.00;99.90
21762;DHT22;11203;50.870;20.682;2023-04-01T00:15:45;9.00;99.90
21762;DHT22;11203;50.870;20.682;2023-04-01T00:18:11;9.00;99.90
21762;DHT22;11203;50.870;20.682;2023-04-01T00:20:37;9.00;99.90
21762;DHT22;11203;50.870;20.682;2023-04-01T00:23:04;8.90;99.90
21762;DHT22;11203;50.870;20.682;2023-04-01T00:25:31;8.90;99.90
21762;DHT22;11203;50.870;20.682;2023-04-01T00:27:57;9.00;99.90
21762;DHT22;11203;50.870;20.682;2023-04-01T00:30:23;9.00;99.90
21762;DHT22;11203;50.870;20.682;2023-04-01T00:32:52;9.00;99.90
21762;DHT22;11203;50.870;20.682;2023-04-01T00:35:19;8.90;99.90
21762;DHT22;11203;50.870;20.682;2023-04-01T00:37:46;9.00;99.90
21762;DHT22;11203;50.870;20.682;2023-04-01T00:40:34;8.90;99.90
21762;DHT22;11203;50.870;20.682;2023-04-01T00:43:03;8.90;99.90
21762;DHT22;11203;50.870;20.682;2023-04-01T00:45:39;8.80;99.90
21762;DHT22;11203;50.870;20.682;2023-04-01T00:48:57;8.60;99.90
21762;DHT22;11203;50.870;20.682;2023-04-01T00:51:17;8.40;99.90
21762;DHT22;11203;50.870;20.682;2023-04-01T00:53:49;8.30;99.90
21762;DHT22;11203;50.870;20.682;2023-04-01T00:56:19;8.40;99.90
21762;DHT22;11203;50.870;20.682;2023-04-01T00:58:54;8.40;99.90
21762;DHT22;11203;50.870;20.682;2023-04-01T01:01:27;8.30;99.90
21762;DHT22;11203;50.870;20.682;2023-04-01T01:03:55;8.30;99.90
21762;DHT22;11203;50.870;20.682;2023-04-01T01:07:24;8.30;99.90
21762;DHT22;11203;50.870;20.682;2023-04-01T01:12:22;8.30;99.90
21762;DHT22;11203;50.870;20.682;2023-04-01T01:17:46;8.10;99.90
21762;DHT22;11203;50.870;20.682;2023-04-01T01:37:36;7.60;99.90
21762;DHT22;11203;50.870;20.682;2023-04-01T01:40:07;7.60;99.90
21762;DHT22;11203;50.870;20.682;2023-04-01T01:42:38;7.60;99.90
21762;DHT22;11203;50.870;20.682;2023-04-01T01:45:08;7.50;99.90
21762;DHT22;11203;50.870;20.682;2023-04-01T01:47:36;7.50;99.90
21762;DHT22;11203;50.870;20.682;2023-04-01T01:50:04;7.50;99.90
21762;DHT22;11203;50.870;20.682;2023-04-01T01:52:31;7.40;99.90
21762;DHT22;11203;50.870;20.682;2023-04-01T01:54:58;7.20;99.90
21762;DHT22;11203;50.870;20.682;2023-04-01T01:57:30;7.10;99.90
21762;DHT22;11203;50.870;20.682;2023-04-01T02:00:04;6.90;99.90
21762;DHT22;11203;50.870;20.682;2023-04-01T02:02:44;6.90;99.90
21762;DHT22;11203;50.870;20.682;2023-04-01T02:05:19;6.80;99.90
21762;DHT22;11203;50.870;20.682;2023-04-01T02:07:52;6.80;99.90
21762;DHT22;11203;50.870;20.682;2023-04-01T02:10:25;6.80;99.90
21762;DHT22;11203;50.870;20.682;2023-04-01T02:12:54;6.80;99.90
21762;DHT22;11203;50.870;20.682;2023-04-01T02:15:24;6.90;99.90
21762;DHT22;11203;50.870;20.682;2023-04-01T02:17:54;6.90;99.90
21762;DHT22;11203;50.870;20.682;2023-04-01T02:20:23;6.90;99.90
21762;DHT22;11203;50.870;20.682;2023-04-01T02:22:59;6.90;99.90
21762;DHT22;11203;50.870;20.682;2023-04-01T02:25:28;6.90;99.90
21762;DHT22;11203;50.870;20.682;2023-04-01T02:27:57;6.80;99.90
21762;DHT22;11203;50.870;20.682;2023-04-01T02:30:27;6.80;99.90
21762;DHT22;11203;50.870;20.682;2023-04-01T02:32:56;6.80;99.90
21762;DHT22;11203;50.870;20.682;2023-04-01T02:35:24;6.80;99.90
21762;DHT22;11203;50.870;20.682;2023-04-01T02:37:55;6.80;99.90
21762;DHT22;11203;50.870;20.682;2023-04-01T02:40:22;6.80;99.90
21762;DHT22;11203;50.870;20.682;2023-04-01T02:42:48;6.80;99.90
21762;DHT22;11203;50.870;20.682;2023-04-01T02:45:15;6.80;99.90
21762;DHT22;11203;50.870;20.682;2023-04-01T02:47:41;6.80;99.90
21762;DHT22;11203;50.870;20.682;2023-04-01T02:50:08;6.80;99.90
21762;DHT22;11203;50.870;20.682;2023-04-01T02:52:35;6.70;99.90
21762;DHT22;11203;50.870;20.682;2023-04-01T02:55:03;6.70;99.90
21762;DHT22;11203;50.870;20.682;2023-04-01T02:57:30;6.70;99.90
21762;DHT22;11203;50.870;20.682;2023-04-01T02:59:56;6.70;99.90
21762;DHT22;11203;50.870;20.682;2023-04-01T03:02:22;6.60;99.90
21762;DHT22;11203;50.870;20.682;2023-04-01T03:04:48;6.60;99.90
21762;DHT22;11203;50.870;20.682;2023-04-01T03:07:14;6.70;99.90
21762;DHT22;11203;50.870;20.682;2023-04-01T03:09:41;6.70;99.90
21762;DHT22;11203;50.870;20.682;2023-04-01T03:12:07;6.70;99.90
21762;DHT22;11203;50.870;20.682;2023-04-01T03:14:33;6.70;99.90
21762;DHT22;11203;50.870;20.682;2023-04-01T03:16:59;6.80;99.90
21762;DHT22;11203;50.870;20.682;2023-04-01T03:19:25;6.80;99.90
21762;DHT22;11203;50.870;20.682;2023-04-01T03:21:51;6.80;99.90
21762;DHT22;11203;50.870;20.682;2023-04-01T03:24:19;6.90;99.90
21762;DHT22;11203;50.870;20.682;2023-04-01T03:26:45;6.80;99.90
21762;DHT22;11203;50.870;20.682;2023-04-01T03:29:12;6.90;99.90
21762;DHT22;11203;50.870;20.682;2023-04-01T03:31:38;6.80;99.90
21762;DHT22;11203;50.870;20.682;2023-04-01T03:34:04;6.90;99.90
21762;DHT22;11203;50.870;20.682;2023-04-01T03:36:30;6.90;99.90
21762;DHT22;11203;50.870;20.682;2023-04-01T03:38:56;6.90;99.90
21762;DHT22;11203;50.870;20.682;2023-04-01T03:41:22;6.90;99.90
21762;DHT22;11203;50.870;20.682;2023-04-01T03:43:48;6.90;99.90
21762;DHT22;11203;50.870;20.682;2023-04-01T03:46:19;6.90;99.90
21762;DHT22;11203;50.870;20.682;2023-04-01T03:48:46;6.80;99.90
21762;DHT22;11203;50.870;20.682;2023-04-01T03:51:12;6.80;99.90
21762;DHT22;11203;50.870;20.682;2023-04-01T03:53:39;6.70;99.90
21762;DHT22;11203;50.870;20.682;2023-04-01T03:56:06;6.70;99.90
21762;DHT22;11203;50.870;20.682;2023-04-01T03:58:34;6.70;99.90
21762;DHT22;11203;50.870;20.682;2023-04-01T04:01:00;6.60;99.90
21762;DHT22;11203;50.870;20.682;2023-04-01T04:03:28;6.60;99.90
21762;DHT22;11203;50.870;20.682;2023-04-01T04:05:54;6.60;99.90
21762;DHT22;11203;50.870;20.682;2023-04-01T04:08:21;6.60;99.90
21762;DHT22;11203;50.870;20.682;2023-04-01T04:10:51;6.60;99.90
21762;DHT22;11203;50.870;20.682;2023-04-01T04:13:20;6.60;99.90
21762;DHT22;11203;50.870;20.682;2023-04-01T04:15:47;6.60;99.90
21762;DHT22;11203;50.870;20.682;2023-04-01T04:18:13;6.60;99.90
21762;DHT22;11203;50.870;20.682;2023-04-01T04:20:46;6.60;99.90
21762;DHT22;11203;50.870;20.682;2023-04-01T04:23:15;6.70;99.90
21762;DHT22;11203;50.870;20.682;2023-04-01T04:25:56;6.60;99.90
21762;DHT22;11203;50.870;20.682;2023-04-01T04:28:25;6.70;99.90
21762;DHT22;11203;50.870;20.682;2023-04-01T04:30:52;6.70;99.90
21762;DHT22;11203;50.870;20.682;2023-04-01T04:33:19;6.70;99.90
21762;DHT22;11203;50.870;20.682;2023-04-01T04:35:45;6.90;99.90
21762;DHT22;11203;50.870;20.682;2023-04-01T04:38:11;6.90;99.90
21762;DHT22;11203;50.870;20.682;2023-04-01T04:40:38;6.90;99.90
21762;DHT22;11203;50.870;20.682;2023-04-01T04:43:05;7.00;99.90
21762;DHT22;11203;50.870;20.682;2023-04-01T04:45:31;7.00;99.90
21762;DHT22;11203;50.870;20.682;2023-04-01T04:47:58;7.00;99.90
21762;DHT22;11203;50.870;20.682;2023-04-01T04:50:24;7.00;99.90
21762;DHT22;11203;50.870;20.682;2023-04-01T04:52:51;7.00;99.90
21762;DHT22;11203;50.870;20.682;2023-04-01T04:55:17;7.10;99.90
21762;DHT22;11203;50.870;20.682;2023-04-01T04:57:44;7.10;99.90
21762;DHT22;11203;50.870;20.682;2023-04-01T05:00:10;7.10;99.90
21762;DHT22;11203;50.870;20.682;2023-04-01T05:02:37;7.10;99.90
21762;DHT22;11203;50.870;20.682;2023-04-01T05:05:03;7.10;99.90
21762;DHT22;11203;50.870;20.682;2023-04-01T05:07:30;7.20;99.90
21762;DHT22;11203;50.870;20.682;2023-04-01T05:09:56;7.20;99.90
21762;DHT22;11203;50.870;20.682;2023-04-01T05:12:22;7.20;99.90
21762;DHT22;11203;50.870;20.682;2023-04-01T05:14:48;7.20;99.90
21762;DHT22;11203;50.870;20.682;2023-04-01T05:17:14;7.30;99.90
21762;DHT22;11203;50.870;20.682;2023-04-01T05:19:40;7.20;99.90
21762;DHT22;11203;50.870;20.682;2023-04-01T05:22:06;7.20;99.90
21762;DHT22;11203;50.870;20.682;2023-04-01T05:24:32;7.30;99.90
21762;DHT22;11203;50.870;20.682;2023-04-01T05:26:59;7.30;99.90
21762;DHT22;11203;50.870;20.682;2023-04-01T05:29:26;7.40;99.90
21762;DHT22;11203;50.870;20.682;2023-04-01T05:31:52;7.40;99.90
21762;DHT22;11203;50.870;20.682;2023-04-01T05:34:18;7.50;99.90
21762;DHT22;11203;50.870;20.682;2023-04-01T05:36:44;7.50;99.90
21762;DHT22;11203;50.870;20.682;2023-04-01T05:39:10;7.60;99.90
21762;DHT22;11203;50.870;20.682;2023-04-01T05:41:37;7.60;99.90
21762;DHT22;11203;50.870;20.682;2023-04-01T05:44:04;7.60;99.90
21762;DHT22;11203;50.870;20.682;2023-04-01T05:46:31;7.60;99.90
21762;DHT22;11203;50.870;20.682;2023-04-01T05:48:57;7.70;99.90
21762;DHT22;11203;50.870;20.682;2023-04-01T05:51:24;7.70;99.90
21762;DHT22;11203;50.870;20.682;2023-04-01T05:53:50;7.80;99.90
21762;DHT22;11203;50.870;20.682;2023-04-01T05:56:16;7.80;99.90
21762;DHT22;11203;50.870;20.682;2023-04-01T05:58:51;7.90;99.90
21762;DHT22;11203;50.870;20.682;2023-04-01T06:01:19;8.00;99.90
21762;DHT22;11203;50.870;20.682;2023-04-01T06:03:45;8.10;99.90
21762;DHT22;11203;50.870;20.682;2023-04-01T06:06:15;8.10;99.90
21762;DHT22;11203;50.870;20.682;2023-04-01T06:08:46;8.20;99.90
21762;DHT22;11203;50.870;20.682;2023-04-01T06:34:38;8.80;99.90
21762;DHT22;11203;50.870;20.682;2023-04-01T06:46:38;8.70;99.90
21762;DHT22;11203;50.870;20.682;2023-04-01T06:54:53;8.80;99.90
21762;DHT22;11203;50.870;20.682;2023-04-01T07:00:37;9.00;99.90
21762;DHT22;11203;50.870;20.682;2023-04-01T07:06:05;9.00;99.90
21762;DHT22;11203;50.870;20.682;2023-04-01T07:08:36;9.10;99.90
21762;DHT22;11203;50.870;20.682;2023-04-01T07:11:06;9.20;99.90
21762;DHT22;11203;50.870;20.682;2023-04-01T07:13:49;9.30;99.90
21762;DHT22;11203;50.870;20.682;2023-04-01T07:16:25;9.30;99.90
21762;DHT22;11203;50.870;20.682;2023-04-01T07:19:16;9.40;99.90
21762;DHT22;11203;50.870;20.682;2023-04-01T07:22:03;9.40;99.90
21762;DHT22;11203;50.870;20.682;2023-04-01T07:24:37;9.40;99.90
21762;DHT22;11203;50.870;20.682;2023-04-01T07:27:10;9.50;99.90
21762;DHT22;11203;50.870;20.682;2023-04-01T07:29:38;9.60;99.90
21762;DHT22;11203;50.870;20.682;2023-04-01T07:35:56;9.70;99.90
21762;DHT22;11203;50.870;20.682;2023-04-01T08:01:55;10.00;99.90
21762;DHT22;11203;50.870;20.682;2023-04-01T08:07:44;10.00;99.90
21762;DHT22;11203;50.870;20.682;2023-04-01T08:22:03;10.30;99.90
21762;DHT22;11203;50.870;20.682;2023-04-01T08:24:43;10.40;99.90
21762;DHT22;11203;50.870;20.682;2023-04-01T08:27:41;10.40;99.90
21762;DHT22;11203;50.870;20.682;2023-04-01T08:33:11;10.50;99.90
21762;DHT22;11203;50.870;20.682;2023-04-01T08:36:02;10.40;99.90
21762;DHT22;11203;50.870;20.682;2023-04-01T08:38:49;10.40;99.90
21762;DHT22;11203;50.870;20.682;2023-04-01T08:44:48;10.60;99.90
21762;DHT22;11203;50.870;20.682;2023-04-01T09:26:00;11.30;99.90
21762;DHT22;11203;50.870;20.682;2023-04-01T09:38:21;11.10;99.90
21762;DHT22;11203;50.870;20.682;2023-04-01T09:44:04;10.30;99.90
21762;DHT22;11203;50.870;20.682;2023-04-01T09:53:32;9.90;99.90
21762;DHT22;11203;50.870;20.682;2023-04-01T09:56:18;9.80;99.90
21762;DHT22;11203;50.870;20.682;2023-04-01T10:07:40;10.40;99.90
21762;DHT22;11203;50.870;20.682;2023-04-01T10:36:51;10.60;99.90
21762;DHT22;11203;50.870;20.682;2023-04-01T10:39:34;10.60;99.90
21762;DHT22;11203;50.870;20.682;2023-04-01T10:57:26;10.90;99.90
21762;DHT22;11203;50.870;20.682;2023-04-01T11:00:18;11.30;99.90
21762;DHT22;11203;50.870;20.682;2023-04-01T11:28:27;11.90;99.90
21762;DHT22;11203;50.870;20.682;2023-04-01T11:42:44;11.30;99.90
21762;DHT22;11203;50.870;20.682;2023-04-01T11:48:37;11.20;99.90
21762;DHT22;11203;50.870;20.682;2023-04-01T11:51:57;11.20;99.90
21762;DHT22;11203;50.870;20.682;2023-04-01T12:06:48;11.60;99.90
21762;DHT22;11203;50.870;20.682;2023-04-01T12:12:46;11.80;99.90
21762;DHT22;11203;50.870;20.682;2023-04-01T12:15:23;11.80;99.90
21762;DHT22;11203;50.870;20.682;2023-04-01T12:21:34;11.50;99.90
21762;DHT22;11203;50.870;20.682;2023-04-01T12:42:51;12.50;99.90
21762;DHT22;11203;50.870;20.682;2023-04-01T12:45:28;12.10;99.90
21762;DHT22;11203;50.870;20.682;2023-04-01T13:05:44;12.30;99.90
21762;DHT22;11203;50.870;20.682;2023-04-01T13:17:32;11.90;99.90
21762;DHT22;11203;50.870;20.682;2023-04-01T13:29:04;12.00;99.90
21762;DHT22;11203;50.870;20.682;2023-04-01T13:40:36;11.70;99.90
21762;DHT22;11203;50.870;20.682;2023-04-01T13:43:39;11.70;99.90
21762;DHT22;11203;50.870;20.682;2023-04-01T13:57:27;11.50;99.90
21762;DHT22;11203;50.870;20.682;2023-04-01T14:09:51;10.90;99.90
21762;DHT22;11203;50.870;20.682;2023-04-01T14:12:54;10.90;99.90
21762;DHT22;11203;50.870;20.682;2023-04-01T14:21:39;10.90;99.90
21762;DHT22;11203;50.870;20.682;2023-04-01T14:39:18;11.60;99.90
21762;DHT22;11203;50.870;20.682;2023-04-01T14:44:50;11.60;99.90
21762;DHT22;11203;50.870;20.682;2023-04-01T14:47:39;11.70;99.90
21762;DHT22;11203;50.870;20.682;2023-04-01T14:50:44;11.70;99.90
21762;DHT22;11203;50.870;20.682;2023-04-01T14:53:31;11.70;99.90
21762;DHT22;11203;50.870;20.682;2023-04-01T14:56:02;11.60;99.90
21762;DHT22;11203;50.870;20.682;2023-04-01T14:58:45;11.50;99.90
21762;DHT22;11203;50.870;20.682;2023-04-01T15:10:54;9.20;99.90
21762;DHT22;11203;50.870;20.682;2023-04-01T15:16:34;8.40;99.90
21762;DHT22;11203;50.870;20.682;2023-04-01T15:32:02;8.60;99.90
21762;DHT22;11203;50.870;20.682;2023-04-01T15:39:49;8.70;99.90
21762;DHT22;11203;50.870;20.682;2023-04-01T15:46:09;8.80;99.90
21762;DHT22;11203;50.870;20.682;2023-04-01T15:49:05;9.00;99.90
21762;DHT22;11203;50.870;20.682;2023-04-01T16:00:30;9.00;99.90
21762;DHT22;11203;50.870;20.682;2023-04-01T16:06:13;9.00;99.90
21762;DHT22;11203;50.870;20.682;2023-04-01T16:12:04;9.10;99.90
21762;DHT22;11203;50.870;20.682;2023-04-01T16:18:08;9.10;99.90
21762;DHT22;11203;50.870;20.682;2023-04-01T16:24:02;9.10;99.90
21762;DHT22;11203;50.870;20.682;2023-04-01T16:26:43;9.00;99.90
21762;DHT22;11203;50.870;20.682;2023-04-01T16:31:48;9.10;99.90
21762;DHT22;11203;50.870;20.682;2023-04-01T16:34:38;9.50;99.90
21762;DHT22;11203;50.870;20.682;2023-04-01T16:37:09;8.30;99.90
21762;DHT22;11203;50.870;20.682;2023-04-01T16:40:12;8.20;99.90
21762;DHT22;11203;50.870;20.682;2023-04-01T16:45:43;9.40;99.90
21762;DHT22;11203;50.870;20.682;2023-04-01T16:48:27;8.90;99.90
21762;DHT22;11203;50.870;20.682;2023-04-01T16:50:59;8.80;99.90
21762;DHT22;11203;50.870;20.682;2023-04-01T16:53:47;8.20;99.90
21762;DHT22;11203;50.870;20.682;2023-04-01T16:56:36;8.20;99.90
21762;DHT22;11203;50.870;20.682;2023-04-01T16:59:35;8.70;99.90
21762;DHT22;11203;50.870;20.682;2023-04-01T17:02:12;8.70;99.90
21762;DHT22;11203;50.870;20.682;2023-04-01T17:18:42;8.80;99.90
21762;DHT22;11203;50.870;20.682;2023-04-01T17:21:31;8.20;99.90
21762;DHT22;11203;50.870;20.682;2023-04-01T17:27:17;8.80;99.90
21762;DHT22;11203;50.870;20.682;2023-04-01T17:35:53;8.80;99.90
21762;DHT22;11203;50.870;20.682;2023-04-01T17:42:14;8.80;99.90
21762;DHT22;11203;50.870;20.682;2023-04-01T17:57:43;8.20;99.90
21762;DHT22;11203;50.870;20.682;2023-04-01T18:06:08;8.20;99.90
21762;DHT22;11203;50.870;20.682;2023-04-01T18:08:56;8.90;99.90
21762;DHT22;11203;50.870;20.682;2023-04-01T18:23:19;8.70;99.90
21762;DHT22;11203;50.870;20.682;2023-04-01T18:25:53;8.20;99.90
21762;DHT22;11203;50.870;20.682;2023-04-01T18:31:19;8.20;99.90
21762;DHT22;11203;50.870;20.682;2023-04-01T18:39:38;8.30;99.90
21762;DHT22;11203;50.870;20.682;2023-04-01T18:43:30;8.40;99.90
21762;DHT22;11203;50.870;20.682;2023-04-01T18:45:35;8.40;99.90
21762;DHT22;11203;50.870;20.682;2023-04-01T18:51:59;8.50;99.90
21762;DHT22;11203;50.870;20.682;2023-04-01T18:54:48;8.30;99.90
21762;DHT22;11203;50.870;20.682;2023-04-01T18:57:21;8.70;99.90
21762;DHT22;11203;50.870;20.682;2023-04-01T19:00:01;8.30;99.90
21762;DHT22;11203;50.870;20.682;2023-04-01T19:02:45;8.60;99.90
21762;DHT22;11203;50.870;20.682;2023-04-01T19:05:33;8.60;99.90
21762;DHT22;11203;50.870;20.682;2023-04-01T19:08:30;8.30;99.90
21762;DHT22;11203;50.870;20.682;2023-04-01T19:14:24;8.40;99.90
21762;DHT22;11203;50.870;20.682;2023-04-01T19:19:59;8.50;99.90
21762;DHT22;11203;50.870;20.682;2023-04-01T19:26:42;8.20;99.90
21762;DHT22;11203;50.870;20.682;2023-04-01T19:35:19;8.30;99.90
21762;DHT22;11203;50.870;20.682;2023-04-01T19:38:04;8.20;99.90
21762;DHT22;11203;50.870;20.682;2023-04-01T19:40:53;8.40;99.90
21762;DHT22;11203;50.870;20.682;2023-04-01T19:46:53;8.30;99.90
21762;DHT22;11203;50.870;20.682;2023-04-01T19:52:30;8.30;99.90
21762;DHT22;11203;50.870;20.682;2023-04-01T19:57:56;8.40;99.90
21762;DHT22;11203;50.870;20.682;2023-04-01T20:00:42;8.20;99.90
21762;DHT22;11203;50.870;20.682;2023-04-01T20:03:57;8.10;99.90
21762;DHT22;11203;50.870;20.682;2023-04-01T20:06:38;8.40;99.90
21762;DHT22;11203;50.870;20.682;2023-04-01T20:09:37;8.10;99.90
21762;DHT22;11203;50.870;20.682;2023-04-01T20:17:58;8.30;99.90
21762;DHT22;11203;50.870;20.682;2023-04-01T20:20:28;8.00;99.90
21762;DHT22;11203;50.870;20.682;2023-04-01T20:25:57;8.00;99.90
21762;DHT22;11203;50.870;20.682;2023-04-01T20:28:47;8.20;99.90
21762;DHT22;11203;50.870;20.682;2023-04-01T20:31:55;8.00;99.90
21762;DHT22;11203;50.870;20.682;2023-04-01T20:37:32;8.30;99.90
21762;DHT22;11203;50.870;20.682;2023-04-01T20:46:27;8.00;99.90
21762;DHT22;11203;50.870;20.682;2023-04-01T20:57:49;8.00;99.90
21762;DHT22;11203;50.870;20.682;2023-04-01T21:09:13;8.00;99.90
21762;DHT22;11203;50.870;20.682;2023-04-01T21:12:21;7.90;99.90
21762;DHT22;11203;50.870;20.682;2023-04-01T21:15:33;7.90;99.90
21762;DHT22;11203;50.870;20.682;2023-04-01T21:21:55;7.80;99.90
21762;DHT22;11203;50.870;20.682;2023-04-01T21:24:45;7.80;99.90
21762;DHT22;11203;50.870;20.682;2023-04-01T21:42:50;7.90;99.90
21762;DHT22;11203;50.870;20.682;2023-04-01T21:48:47;7.80;99.90
21762;DHT22;11203;50.870;20.682;2023-04-01T21:54:59;7.90;99.90
21762;DHT22;11203;50.870;20.682;2023-04-01T22:07:20;7.90;99.90
21762;DHT22;11203;50.870;20.682;2023-04-01T22:12:37;7.90;99.90
21762;DHT22;11203;50.870;20.682;2023-04-01T22:20:59;7.70;99.90
21762;DHT22;11203;50.870;20.682;2023-04-01T22:23:47;7.70;99.90
21762;DHT22;11203;50.870;20.682;2023-04-01T22:26:38;7.80;99.90
21762;DHT22;11203;50.870;20.682;2023-04-01T22:32:47;7.80;99.90
21762;DHT22;11203;50.870;20.682;2023-04-01T22:38:19;7.70;99.90
21762;DHT22;11203;50.870;20.682;2023-04-01T22:41:16;7.80;99.90
21762;DHT22;11203;50.870;20.682;2023-04-01T22:43:48;7.60;99.90
21762;DHT22;11203;50.870;20.682;2023-04-01T22:46:41;7.60;99.90
21762;DHT22;11203;50.870;20.682;2023-04-01T22:49:32;7.60;99.90
21762;DHT22;11203;50.870;20.682;2023-04-01T22:52:05;7.70;99.90
21762;DHT22;11203;50.870;20.682;2023-04-01T22:54:48;7.50;99.90
21762;DHT22;11203;50.870;20.682;2023-04-01T23:03:11;7.50;99.90
21762;DHT22;11203;50.870;20.682;2023-04-01T23:05:47;7.50;99.90
21762;DHT22;11203;50.870;20.682;2023-04-01T23:11:28;7.60;99.90
21762;DHT22;11203;50.870;20.682;2023-04-01T23:19:56;7.50;99.90
21762;DHT22;11203;50.870;20.682;2023-04-01T23:28:46;7.60;99.90
21762;DHT22;11203;50.870;20.682;2023-04-01T23:31:34;7.40;99.90
21762;DHT22;11203;50.870;20.682;2023-04-01T23:34:26;7.50;99.90
21762;DHT22;11203;50.870;20.682;2023-04-01T23:37:10;7.50;99.90
21762;DHT22;11203;50.870;20.682;2023-04-01T23:39:43;7.40;99.90
21762;DHT22;11203;50.870;20.682;2023-04-01T23:42:26;7.40;99.90
21762;DHT22;11203;50.870;20.682;2023-04-01T23:45:00;7.40;99.90
21762;DHT22;11203;50.870;20.682;2023-04-01T23:47:32;7.30;99.90
21762;DHT22;11203;50.870;20.682;2023-04-01T23:50:10;7.50;99.90
21762;DHT22;11203;50.870;20.682;2023-04-01T23:52:48;7.30;99.90
21762;DHT22;11203;50.870;20.682;2023-04-01T23:55:22;7.30;99.90
